This is the latest recevied weather packets stored in our database for station/object KI2K. If no packets are shown the sender has not sent any weather packets the latest 10 day(s).
| Time | Temp. | Humidity | Pressure | Rain* | Wind** | Luminosity | Snow |
|---|---|---|---|---|---|---|---|
| 1778080841 | 12.78° C | 68% | 1013.4 hPa | 0 mm | - | 198 W/m² | - |
| 1778080539 | 12.78° C | 68% | 1013 hPa | 0 mm | - | 234 W/m² | - |
| 1778080236 | 12.78° C | 69% | 1012.9 hPa | 0 mm | - | 215 W/m² | - |
| 1778079931 | 13.33° C | 70% | 1013 hPa | 0 mm | - | 232 W/m² | - |
| 1778079623 | 12.78° C | 68% | 1012.9 hPa | 0 mm | - | 262 W/m² | - |
| 1778079320 | 12.78° C | 71% | 1013.3 hPa | 0 mm | - | 553 W/m² | - |
| 1778079018 | 12.78° C | 70% | 1013.4 hPa | 0 mm | - | 484 W/m² | - |
| 1778078714 | 12.22° C | 74% | 1013.3 hPa | 0 mm | - | 556 W/m² | - |
| 1778078412 | 12.22° C | 72% | 1012.9 hPa | 0 mm | - | 270 W/m² | - |
| 1778078109 | 11.67° C | 74% | 1013.2 hPa | 0 mm | - | 430 W/m² | - |
| 1778077808 | 11.67° C | 74% | 1012.9 hPa | 0 mm | - | 744 W/m² | - |
| 1778077505 | 11.67° C | 75% | 1012.8 hPa | 0 mm | - | 202 W/m² | - |
| 1778077203 | 11.67° C | 79% | 1012.9 hPa | 0 mm | - | 280 W/m² | - |
| 1778076900 | 11.11° C | 77% | 1012.8 hPa | 0 mm | - | 291 W/m² | - |
| 1778076598 | 11.11° C | 79% | 1012.7 hPa | 0 mm | - | 223 W/m² | - |
| 1778076295 | 11.11° C | 77% | 1012.8 hPa | 0 mm | - | 255 W/m² | - |
| 1778075992 | 11.67° C | 80% | 1012.7 hPa | 0 mm | - | 259 W/m² | - |
| 1778075689 | 11.11° C | 81% | 1012.4 hPa | 0 mm | - | 572 W/m² | - |
| 1778075385 | 10.56° C | 82% | 1012.5 hPa | 0 mm | - | 518 W/m² | - |
| 1778075081 | 10.56° C | 83% | 1012.7 hPa | 0 mm | - | 232 W/m² | - |
| 1778074778 | 10.56° C | 84% | 1012.8 hPa | 0 mm | - | 223 W/m² | - |
| 1778074475 | 10.56° C | 84% | 1012.6 hPa | 0 mm | - | 279 W/m² | - |
| 1778074172 | 11.11° C | 86% | 1012.8 hPa | 0 mm | - | 264 W/m² | - |
| 1778073869 | 11.67° C | 83% | 1012.2 hPa | 0 mm | - | 256 W/m² | - |
| 1778073567 | 10.56° C | 85% | 1012.5 hPa | 0 mm | - | 435 W/m² | - |
* Rain latest hour (hover to see other rain measurements)
** Current wind speed in m/s (hover to see current wind gust speed)